Time;durP1;ratioP1;P1;durP2;ratioP2;P2;SDS_P1;SDS_P2;PMS_P1;PMS_P2;Temp;Humidity;BMP_temperature;BMP_pressure;BME280_temperature;BME280_humidity;BME280_pressure;Samples;Min_cycle;Max_cycle;Signal;HPM_P1;HPM_P2
2023/10/18 00:02:16;;;;;;;7.20;5.25;;;16.20;86.60;;;;;;4995540;28;20033;-81
2023/10/18 00:04:43;;;;;;;6.95;4.68;;;16.20;86.60;;;;;;4994870;28;20030;-81
2023/10/18 00:07:11;;;;;;;7.18;4.80;;;16.20;86.70;;;;;;4995190;28;20053;-81
2023/10/18 00:09:46;;;;;;;6.32;4.75;;;16.20;86.70;;;;;;4995155;28;20027;-81
2023/10/18 00:12:16;;;;;;;6.75;4.60;;;16.10;86.80;;;;;;4995036;28;20026;-81
2023/10/18 00:14:43;;;;;;;6.90;4.90;;;16.10;86.80;;;;;;4995022;28;20077;-81
2023/10/18 00:17:09;;;;;;;7.20;4.93;;;16.10;86.90;;;;;;4995097;28;20487;-81
2023/10/18 00:19:34;;;;;;;7.00;4.75;;;16.10;86.90;;;;;;4995241;28;20022;-81
2023/10/18 00:22:00;;;;;;;7.88;4.75;;;16.10;86.90;;;;;;4995051;28;20531;-81
2023/10/18 00:24:25;;;;;;;6.65;4.68;;;16.10;86.90;;;;;;4994742;28;20484;-81
2023/10/18 00:26:53;;;;;;;6.78;4.80;;;16.00;86.90;;;;;;4995043;28;20033;-80
2023/10/18 00:29:19;;;;;;;6.65;4.47;;;16.10;87.00;;;;;;4995814;28;20545;-80
2023/10/18 00:31:44;;;;;;;7.03;4.78;;;16.10;87.00;;;;;;4998890;28;20110;-81
2023/10/18 00:34:12;;;;;;;7.13;4.88;;;16.00;87.00;;;;;;4998535;28;20022;-81
2023/10/18 00:36:37;;;;;;;6.57;4.65;;;16.10;87.00;;;;;;4998925;28;20026;-81
2023/10/18 00:39:19;;;;;;;7.47;4.70;;;16.10;87.00;;;;;;4998805;28;20032;-81
2023/10/18 00:41:45;;;;;;;6.72;4.60;;;16.10;86.90;;;;;;5016343;28;20029;-80
2023/10/18 00:44:12;;;;;;;6.43;4.47;;;16.00;87.00;;;;;;4998430;28;20507;-81
2023/10/18 00:46:39;;;;;;;6.60;4.50;;;16.10;87.10;;;;;;4998692;28;20410;-81
2023/10/18 00:49:13;;;;;;;6.20;4.40;;;16.10;87.00;;;;;;4998680;28;20549;-81
2023/10/18 00:51:43;;;;;;;5.97;4.32;;;16.10;87.10;;;;;;4998452;28;20160;-81
2023/10/18 00:54:13;;;;;;;6.63;4.38;;;16.00;87.10;;;;;;4998236;28;20112;-81
2023/10/18 00:56:40;;;;;;;6.55;4.75;;;16.00;87.00;;;;;;4998592;28;20029;-81
2023/10/18 01:02:03;;;;;;;6.53;4.20;;;16.10;86.90;;;;;;5003163;28;20553;-80
2023/10/18 01:04:34;;;;;;;6.40;4.28;;;16.10;86.70;;;;;;4997983;28;20036;-80
2023/10/18 01:07:09;;;;;;;6.30;4.45;;;16.10;86.60;;;;;;4998388;28;20109;-81
2023/10/18 01:09:34;;;;;;;5.93;4.20;;;16.00;86.40;;;;;;4998066;28;20026;-80
2023/10/18 01:12:00;;;;;;;6.80;4.10;;;16.10;86.30;;;;;;4998098;28;20026;-81
2023/10/18 01:14:27;;;;;;;6.05;4.25;;;16.10;86.40;;;;;;4997621;28;20029;-81
2023/10/18 01:16:56;;;;;;;6.38;4.15;;;16.10;86.50;;;;;;4998169;28;20030;-81
2023/10/18 01:19:22;;;;;;;6.15;4.25;;;16.20;86.50;;;;;;4998168;28;20113;-80
2023/10/18 01:21:51;;;;;;;6.80;4.10;;;16.10;86.60;;;;;;4998065;28;20452;-80
2023/10/18 01:24:17;;;;;;;6.15;4.30;;;16.10;86.70;;;;;;4997807;28;20022;-81
2023/10/18 01:26:43;;;;;;;6.13;4.30;;;16.10;86.70;;;;;;4998058;28;20404;-81
2023/10/18 01:29:09;;;;;;;5.85;4.07;;;16.00;86.60;;;;;;4997934;28;20029;-81
2023/10/18 01:31:36;;;;;;;6.72;4.40;;;16.00;86.60;;;;;;4998194;28;20531;-80
2023/10/18 01:34:03;;;;;;;6.30;4.18;;;15.90;86.50;;;;;;4997599;28;20048;-80
2023/10/18 01:36:32;;;;;;;5.95;4.20;;;16.00;86.70;;;;;;4997786;28;20509;-80
2023/10/18 01:38:58;;;;;;;5.85;3.95;;;16.00;86.70;;;;;;4997738;28;20083;-81
2023/10/18 01:41:28;;;;;;;5.68;3.97;;;16.10;86.80;;;;;;4997308;28;20514;-81
2023/10/18 01:44:07;;;;;;;6.22;4.25;;;16.00;86.80;;;;;;4997335;28;20104;-81
2023/10/18 01:46:37;;;;;;;5.40;3.60;;;16.00;86.80;;;;;;5016290;28;20065;-81
2023/10/18 01:49:04;;;;;;;6.35;4.47;;;16.00;86.80;;;;;;4997759;28;20079;-81
2023/10/18 01:51:30;;;;;;;5.93;4.00;;;16.00;86.90;;;;;;4997154;28;20376;-81
2023/10/18 01:53:55;;;;;;;5.85;3.90;;;16.00;86.80;;;;;;4997117;28;20037;-81
2023/10/18 01:56:21;;;;;;;6.93;3.95;;;16.00;87.40;;;;;;4997439;28;20048;-81
2023/10/18 01:58:48;;;;;;;5.60;4.00;;;16.00;86.90;;;;;;4997163;28;20032;-81
2023/10/18 02:01:16;;;;;;;6.00;3.90;;;16.00;87.00;;;;;;4997237;28;20030;-80
2023/10/18 02:03:44;;;;;;;5.90;4.00;;;16.00;87.00;;;;;;4996867;28;20026;-81
2023/10/18 02:06:10;;;;;;;6.75;4.22;;;16.00;86.90;;;;;;5014873;28;20022;-81
2023/10/18 02:08:36;;;;;;;5.93;3.90;;;16.00;86.80;;;;;;4997087;28;20026;-81
2023/10/18 02:11:06;;;;;;;6.05;4.10;;;16.00;86.80;;;;;;5014690;28;20029;-81
2023/10/18 02:13:32;;;;;;;6.15;4.22;;;16.00;86.60;;;;;;4996779;28;20033;-81
2023/10/18 02:15:57;;;;;;;5.70;3.80;;;16.10;86.50;;;;;;4997012;28;20025;-81
2023/10/18 02:18:23;;;;;;;6.10;4.00;;;16.10;86.30;;;;;;4996914;28;20125;-81
2023/10/18 02:20:52;;;;;;;6.03;4.00;;;16.10;86.20;;;;;;4996987;28;20076;-81
2023/10/18 02:23:21;;;;;;;5.90;4.00;;;16.10;86.20;;;;;;4996529;28;20048;-81
2023/10/18 02:25:48;;;;;;;5.55;3.85;;;16.10;86.30;;;;;;4986425;28;20072;-81
2023/10/18 02:28:24;;;;;;;5.80;4.20;;;16.10;86.40;;;;;;4978995;28;20053;-81
2023/10/18 02:31:13;;;;;;;5.85;3.90;;;16.00;86.30;;;;;;4977395;28;20045;-81
2023/10/18 02:33:42;;;;;;;5.93;3.78;;;16.00;86.40;;;;;;4976906;28;20549;-81
2023/10/18 02:36:11;;;;;;;5.80;3.90;;;16.00;86.50;;;;;;4977408;28;20555;-82
2023/10/18 02:38:41;;;;;;;6.03;4.10;;;16.00;87.00;;;;;;4977285;28;20407;-81
2023/10/18 02:41:26;;;;;;;5.93;4.13;;;16.00;86.50;;;;;;4994407;28;20018;-81
2023/10/18 02:43:52;;;;;;;5.45;3.80;;;16.00;86.50;;;;;;4976846;28;20045;-81
2023/10/18 02:46:25;;;;;;;5.72;4.05;;;16.00;86.60;;;;;;4994411;28;20029;-81
2023/10/18 02:48:52;;;;;;;6.28;4.30;;;16.00;86.60;;;;;;4977182;28;20026;-81
2023/10/18 02:51:22;;;;;;;5.90;4.13;;;16.00;86.50;;;;;;4976933;28;20073;-81
2023/10/18 02:53:49;;;;;;;5.95;3.80;;;16.00;86.60;;;;;;4975861;28;20034;-81
2023/10/18 02:56:17;;;;;;;5.70;3.75;;;16.00;86.70;;;;;;4976778;28;20037;-81
2023/10/18 02:58:49;;;;;;;6.03;4.00;;;15.90;86.60;;;;;;4976669;28;20034;-79
2023/10/18 03:01:18;;;;;;;6.53;4.13;;;15.90;86.60;;;;;;4976694;28;20071;-81
2023/10/18 03:03:46;;;;;;;6.85;4.00;;;15.90;86.60;;;;;;4993810;28;20026;-81
2023/10/18 03:06:16;;;;;;;6.13;4.10;;;15.90;86.60;;;;;;4976551;28;20038;-80
2023/10/18 03:08:42;;;;;;;5.90;4.10;;;15.90;86.60;;;;;;4976509;28;20029;-80
2023/10/18 03:11:11;;;;;;;5.53;3.85;;;15.90;86.60;;;;;;4976522;28;20388;-80
2023/10/18 03:13:37;;;;;;;5.43;3.60;;;15.90;86.80;;;;;;4976372;28;20053;-81
2023/10/18 03:18:36;;;;;;;5.43;3.80;;;16.00;86.70;;;;;;4993880;28;20033;-81
2023/10/18 03:21:08;;;;;;;6.35;3.80;;;16.00;86.60;;;;;;4976335;28;20107;-80
2023/10/18 03:23:44;;;;;;;5.78;4.03;;;16.00;86.50;;;;;;4976252;28;20027;-81
2023/10/18 03:26:11;;;;;;;5.78;3.72;;;16.00;86.40;;;;;;4976307;28;20054;-81
2023/10/18 03:28:40;;;;;;;6.63;4.38;;;16.00;86.20;;;;;;4975283;28;20022;-82
2023/10/18 03:31:24;;;;;;;6.13;4.15;;;16.10;86.10;;;;;;4973887;28;20054;-80
2023/10/18 03:33:52;;;;;;;5.78;3.72;;;16.10;86.20;;;;;;4963907;28;20034;-80
2023/10/18 03:36:20;;;;;;;5.78;3.95;;;16.00;86.10;;;;;;4976865;28;20062;-79
2023/10/18 03:38:53;;;;;;;6.30;4.05;;;16.00;86.20;;;;;;4984867;28;20019;-81
2023/10/18 03:41:19;;;;;;;5.82;3.90;;;16.00;86.40;;;;;;4956900;28;20109;-80
2023/10/18 03:43:48;;;;;;;6.18;4.25;;;16.00;86.40;;;;;;4990574;28;20026;-79
2023/10/18 03:46:18;;;;;;;5.70;4.00;;;16.00;86.30;;;;;;4994626;28;20049;-81
2023/10/18 03:48:54;;;;;;;5.97;4.03;;;15.90;86.30;;;;;;5012669;28;20042;-80
2023/10/18 03:51:23;;;;;;;6.32;4.00;;;15.90;86.20;;;;;;4993477;28;20101;-80
2023/10/18 03:53:53;;;;;;;6.05;4.03;;;15.90;86.40;;;;;;4992195;28;20033;-81
2023/10/18 03:56:21;;;;;;;6.50;4.13;;;15.90;86.30;;;;;;4993423;28;20031;-81
2023/10/18 03:59:00;;;;;;;6.45;4.40;;;15.90;86.40;;;;;;4992943;28;20026;-83
2023/10/18 04:01:39;;;;;;;6.65;4.22;;;15.90;86.40;;;;;;4994002;28;20054;-82
2023/10/18 04:04:05;;;;;;;6.80;4.75;;;15.90;86.50;;;;;;4993162;28;20029;-81
2023/10/18 04:06:35;;;;;;;6.03;4.15;;;15.90;86.40;;;;;;4992644;28;20036;-78
2023/10/18 04:09:13;;;;;;;6.80;4.50;;;15.90;86.50;;;;;;4993157;28;20036;-80
2023/10/18 04:11:39;;;;;;;6.13;3.97;;;16.00;86.50;;;;;;4993124;28;20050;-80
2023/10/18 04:14:04;;;;;;;5.90;3.95;;;15.90;86.50;;;;;;4982789;28;20022;-80
2023/10/18 04:16:30;;;;;;;6.15;4.22;;;15.90;86.60;;;;;;4975273;28;20030;-80
2023/10/18 04:18:57;;;;;;;6.40;4.40;;;15.90;86.40;;;;;;4975648;28;20407;-81
2023/10/18 04:21:26;;;;;;;6.53;4.40;;;15.90;86.40;;;;;;4976030;28;20405;-82
2023/10/18 04:23:54;;;;;;;5.78;3.90;;;15.90;86.70;;;;;;4975769;28;20113;-82
2023/10/18 04:26:19;;;;;;;6.30;4.40;;;15.90;86.60;;;;;;4969043;28;20045;-82
2023/10/18 04:28:45;;;;;;;6.50;4.30;;;15.90;86.50;;;;;;4964105;28;20023;-81
2023/10/18 04:31:14;;;;;;;6.57;4.38;;;15.90;86.40;;;;;;4980629;28;20503;-81
2023/10/18 04:33:49;;;;;;;6.32;4.10;;;15.90;86.20;;;;;;4975622;28;20030;-80
2023/10/18 04:36:15;;;;;;;6.60;4.10;;;15.90;86.20;;;;;;4974674;28;20047;-81
2023/10/18 04:38:43;;;;;;;7.00;4.72;;;16.00;86.00;;;;;;4966760;28;20573;-82
2023/10/18 04:41:10;;;;;;;6.30;4.20;;;16.00;85.90;;;;;;5013048;28;20045;-81
2023/10/18 04:43:42;;;;;;;6.30;4.40;;;16.00;85.90;;;;;;4994204;28;20033;-82
2023/10/18 04:46:14;;;;;;;6.25;4.15;;;16.00;85.90;;;;;;4994167;28;20026;-82
2023/10/18 04:54:16;;;;;;;6.15;4.10;;;15.90;86.10;;;;;;5013009;28;20427;-82
2023/10/18 04:56:46;;;;;;;6.30;4.43;;;15.90;86.10;;;;;;4995183;28;20026;-81
2023/10/18 05:04:24;;;;;;;6.22;4.30;;;15.90;86.20;;;;;;5011688;28;20373;-83
2023/10/18 05:06:54;;;;;;;6.68;4.50;;;15.90;86.20;;;;;;4993898;28;20092;-81
2023/10/18 05:09:43;;;;;;;6.07;4.20;;;15.90;86.30;;;;;;4994087;28;20048;-80
2023/10/18 05:17:42;;;;;;;5.97;4.05;;;15.90;86.30;;;;;;5015709;28;20033;-82
2023/10/18 05:22:44;;;;;;;6.82;4.53;;;15.90;86.30;;;;;;5014971;28;20025;-82
2023/10/18 05:25:30;;;;;;;6.28;4.15;;;15.90;86.80;;;;;;4997541;28;20034;-82
2023/10/18 05:36:29;;;;;;;;;;;15.90;86.50;;;;;;5016264;28;20133;-80
2023/10/18 05:38:56;;;;;;;6.13;4.22;;;15.80;86.30;;;;;;4997200;28;20348;-83
2023/10/18 05:43:47;;;;;;;6.30;4.25;;;15.90;86.20;;;;;;5014643;28;20033;-82
2023/10/18 05:46:12;;;;;;;6.28;4.38;;;15.90;86.00;;;;;;4997316;28;20098;-83
2023/10/18 05:48:41;;;;;;;6.53;4.85;;;15.90;86.30;;;;;;4997300;28;20084;-82
2023/10/18 05:51:57;;;;;;;7.30;4.60;;;15.90;85.40;;;;;;5014923;28;20021;-80
2023/10/18 05:53:59;;;;;;;6.32;4.50;;;15.90;85.30;;;;;;5006909;28;20134;-79
2023/10/18 05:56:32;;;;;;;7.50;4.50;;;16.00;85.40;;;;;;4996380;28;20117;-83
2023/10/18 06:01:50;;;;;;;7.32;5.00;;;15.90;85.50;;;;;;5015172;28;20033;-81
2023/10/18 06:04:23;;;;;;;8.32;5.53;;;15.90;84.60;;;;;;4996961;28;20022;-81
2023/10/18 06:06:55;;;;;;;7.82;5.00;;;15.90;84.30;;;;;;5014253;28;20509;-81
2023/10/18 06:09:27;;;;;;;7.93;5.15;;;15.90;84.60;;;;;;4996700;28;20404;-81
2023/10/18 06:11:56;;;;;;;7.63;5.25;;;15.80;84.70;;;;;;4996780;28;20033;-81
2023/10/18 06:14:25;;;;;;;9.30;5.15;;;15.90;84.80;;;;;;4996311;28;20029;-81
2023/10/18 06:17:06;;;;;;;8.40;5.45;;;15.80;84.90;;;;;;4996491;28;20030;-81
2023/10/18 06:19:32;;;;;;;8.05;4.88;;;15.80;85.50;;;;;;5014226;28;20026;-81
2023/10/18 06:21:58;;;;;;;8.02;5.07;;;15.90;85.20;;;;;;4996648;28;20480;-81
2023/10/18 06:24:25;;;;;;;7.15;4.78;;;15.80;85.10;;;;;;4996614;28;20057;-81
2023/10/18 06:26:52;;;;;;;7.63;4.85;;;15.80;85.30;;;;;;4995676;28;20494;-81
2023/10/18 06:29:24;;;;;;;7.15;4.85;;;15.80;85.30;;;;;;5014201;28;20427;-81
2023/10/18 06:31:50;;;;;;;7.93;5.10;;;15.80;85.40;;;;;;5014203;28;20025;-81
2023/10/18 06:34:22;;;;;;;6.90;5.00;;;15.80;85.50;;;;;;4996127;28;20037;-81
2023/10/18 06:36:49;;;;;;;7.85;5.10;;;15.80;85.50;;;;;;4996420;28;20534;-81
2023/10/18 06:39:24;;;;;;;7.43;4.90;;;15.80;85.60;;;;;;4996558;28;20124;-81
2023/10/18 06:41:55;;;;;;;8.05;5.32;;;15.80;85.60;;;;;;4996442;28;20069;-81
2023/10/18 06:44:27;;;;;;;7.25;4.30;;;15.80;85.60;;;;;;4996131;28;20120;-81
2023/10/18 06:46:53;;;;;;;;;;;15.80;86.40;;;;;;4996707;28;20088;-81
2023/10/18 06:49:19;;;;;;;6.88;4.72;;;15.80;85.80;;;;;;4988388;28;20364;-81
2023/10/18 06:51:49;;;;;;;6.90;4.55;;;15.90;85.80;;;;;;4976197;28;20054;-81
2023/10/18 06:54:15;;;;;;;6.63;4.45;;;15.80;85.70;;;;;;4976064;28;20766;-81
2023/10/18 06:56:45;;;;;;;7.22;5.13;;;15.90;85.70;;;;;;4994010;28;20101;-81
2023/10/18 06:59:11;;;;;;;7.25;4.80;;;15.80;85.60;;;;;;4976387;28;20030;-81
2023/10/18 07:04:35;;;;;;;6.85;4.88;;;15.80;85.40;;;;;;4971206;28;20511;-81
2023/10/18 07:07:08;;;;;;;6.70;4.32;;;15.90;85.40;;;;;;4976543;28;20034;-81
2023/10/18 07:09:36;;;;;;;7.43;4.90;;;15.90;85.40;;;;;;4993859;28;20022;-81
2023/10/18 07:12:10;;;;;;;7.25;4.88;;;15.90;85.60;;;;;;4976401;28;20421;-81
2023/10/18 07:14:36;;;;;;;7.40;4.90;;;15.90;85.60;;;;;;4976041;28;20073;-81
2023/10/18 07:17:04;;;;;;;6.78;4.50;;;15.90;85.60;;;;;;4994212;28;20461;-82
2023/10/18 07:19:33;;;;;;;7.22;4.28;;;15.90;85.70;;;;;;4976253;28;20143;-81
2023/10/18 07:22:00;;;;;;;6.47;4.65;;;15.90;86.30;;;;;;4976178;28;20029;-81
2023/10/18 07:24:36;;;;;;;6.40;4.28;;;15.90;85.70;;;;;;4976023;28;20045;-81
2023/10/18 07:27:09;;;;;;;6.68;4.57;;;15.90;85.80;;;;;;4976105;28;20113;-81
2023/10/18 07:29:37;;;;;;;6.82;4.47;;;15.90;85.90;;;;;;4976056;28;20114;-81
2023/10/18 07:32:06;;;;;;;6.13;4.38;;;15.80;86.00;;;;;;4975982;28;20026;-81
2023/10/18 07:34:33;;;;;;;6.63;4.50;;;15.90;86.00;;;;;;4975857;28;20499;-82
2023/10/18 07:37:00;;;;;;;7.00;4.40;;;15.90;86.10;;;;;;4975990;28;20030;-81
2023/10/18 07:39:26;;;;;;;6.78;4.50;;;15.90;86.10;;;;;;4975700;28;20076;-81
2023/10/18 07:41:53;;;;;;;6.50;4.40;;;15.90;86.20;;;;;;4975975;28;20022;-82
2023/10/18 07:44:19;;;;;;;5.68;3.90;;;15.90;86.00;;;;;;4975773;28;20073;-81
2023/10/18 07:46:44;;;;;;;6.97;4.40;;;15.90;86.00;;;;;;4976910;28;20558;-81
2023/10/18 07:49:22;;;;;;;6.40;4.35;;;15.90;86.00;;;;;;4993198;28;20022;-81
2023/10/18 07:51:48;;;;;;;6.28;4.40;;;15.90;85.90;;;;;;4975375;28;20031;-81
2023/10/18 07:54:15;;;;;;;6.18;4.03;;;15.90;85.90;;;;;;4992956;28;20515;-81
2023/10/18 07:56:50;;;;;;;5.70;4.00;;;16.00;85.80;;;;;;4993060;28;20037;-82
2023/10/18 07:59:30;;;;;;;6.50;4.10;;;16.00;85.90;;;;;;4975880;28;20421;-82
2023/10/18 08:02:12;;;;;;;5.65;3.83;;;16.00;85.80;;;;;;4975726;28;20080;-82
2023/10/18 08:04:40;;;;;;;6.63;4.03;;;16.10;85.70;;;;;;4975284;28;20030;-81
2023/10/18 08:07:15;;;;;;;6.68;4.30;;;16.10;85.60;;;;;;4975442;28;20428;-82
2023/10/18 08:09:41;;;;;;;6.18;3.95;;;16.20;85.50;;;;;;4975519;28;20027;-81
2023/10/18 08:12:09;;;;;;;6.45;3.92;;;16.20;85.40;;;;;;4975471;28;20022;-81
2023/10/18 08:14:35;;;;;;;5.68;3.78;;;16.20;85.30;;;;;;4975271;28;20154;-81
2023/10/18 08:17:29;;;;;;;6.30;4.05;;;16.20;85.20;;;;;;4975604;28;20073;-82
2023/10/18 08:20:28;;;;;;;6.28;4.10;;;16.20;85.20;;;;;;4975728;28;20030;-81
2023/10/18 08:22:44;;;;;;;6.72;4.18;;;16.20;85.20;;;;;;4992710;28;20034;-81
2023/10/18 08:25:21;;;;;;;6.10;4.00;;;16.20;85.30;;;;;;4975400;28;20120;-81
2023/10/18 08:27:48;;;;;;;5.93;4.00;;;16.10;85.30;;;;;;4975424;28;20029;-81
2023/10/18 08:30:22;;;;;;;6.35;4.30;;;16.10;85.50;;;;;;4975186;28;20018;-82
2023/10/18 08:32:50;;;;;;;6.18;4.07;;;16.10;85.50;;;;;;4975412;28;20033;-82
2023/10/18 08:35:19;;;;;;;6.30;4.28;;;16.10;85.50;;;;;;4975453;28;20030;-81
2023/10/18 08:37:45;;;;;;;5.70;3.80;;;16.10;85.70;;;;;;4992870;28;20374;-82
2023/10/18 08:41:11;;;;;;;6.22;3.70;;;16.10;85.70;;;;;;4975471;28;20069;-81
2023/10/18 08:43:06;;;;;;;5.88;3.80;;;16.10;85.70;;;;;;4981853;28;20070;-82
2023/10/18 08:45:48;;;;;;;5.95;3.92;;;16.00;85.70;;;;;;4992740;28;20057;-82
2023/10/18 08:48:27;;;;;;;6.40;4.15;;;16.00;85.80;;;;;;4975273;28;20037;-81
2023/10/18 08:50:55;;;;;;;5.65;3.78;;;16.00;85.80;;;;;;4976914;28;20081;-82
2023/10/18 08:53:25;;;;;;;6.13;3.90;;;16.00;85.90;;;;;;4978165;28;20109;-81
2023/10/18 08:55:52;;;;;;;5.93;3.75;;;16.00;85.90;;;;;;4978779;28;20456;-82
2023/10/18 08:58:19;;;;;;;6.00;3.88;;;16.00;85.90;;;;;;4978952;28;20058;-81
2023/10/18 09:03:27;;;;;;;5.90;3.60;;;16.00;86.40;;;;;;4996042;28;20030;-82
2023/10/18 09:06:04;;;;;;;5.88;3.60;;;16.00;85.90;;;;;;4978653;28;20027;-81
2023/10/18 09:08:42;;;;;;;5.75;3.70;;;16.00;85.90;;;;;;4978760;28;20023;-82
2023/10/18 09:11:25;;;;;;;6.10;3.88;;;16.00;85.90;;;;;;4996285;28;20022;-82
2023/10/18 09:16:40;;;;;;;5.55;3.78;;;16.00;85.70;;;;;;4995908;28;20169;-82
2023/10/18 09:19:07;;;;;;;5.75;3.45;;;16.10;85.60;;;;;;4978378;28;20459;-82
2023/10/18 09:21:36;;;;;;;5.95;3.65;;;16.10;85.60;;;;;;4995902;28;20516;-81
2023/10/18 09:24:06;;;;;;;6.00;3.70;;;16.10;85.50;;;;;;4978226;28;20062;-81
2023/10/18 09:26:41;;;;;;;5.55;3.70;;;16.10;85.40;;;;;;4978357;28;20030;-82
2023/10/18 09:29:08;;;;;;;5.68;3.63;;;16.10;85.50;;;;;;4995763;28;20019;-81
2023/10/18 09:31:36;;;;;;;5.38;3.40;;;16.10;85.60;;;;;;4978304;28;20050;-81
2023/10/18 09:34:08;;;;;;;5.85;3.50;;;16.10;85.70;;;;;;4977804;28;20519;-80
2023/10/18 09:36:38;;;;;;;5.63;3.47;;;16.10;85.80;;;;;;4978186;28;20073;-82
2023/10/18 09:39:09;;;;;;;5.75;3.38;;;16.00;86.30;;;;;;4978140;28;20458;-81
2023/10/18 09:41:37;;;;;;;6.15;3.78;;;16.10;85.90;;;;;;4978078;28;20033;-82
2023/10/18 09:44:03;;;;;;;5.95;3.67;;;16.00;85.80;;;;;;4977829;28;20053;-81
2023/10/18 09:46:31;;;;;;;5.45;3.45;;;16.00;85.80;;;;;;4995222;28;20030;-81
2023/10/18 09:48:58;;;;;;;5.72;3.63;;;16.00;85.90;;;;;;4977783;28;20018;-82
2023/10/18 09:51:24;;;;;;;5.70;3.22;;;16.00;85.90;;;;;;4977864;28;20030;-81
2023/10/18 09:53:51;;;;;;;5.13;3.30;;;16.00;85.90;;;;;;4977197;28;20041;-81
2023/10/18 09:56:24;;;;;;;6.07;3.60;;;16.00;86.00;;;;;;4995306;28;20026;-81
2023/10/18 09:58:51;;;;;;;5.80;3.60;;;16.00;86.00;;;;;;4995244;28;20026;-82
2023/10/18 10:01:30;;;;;;;5.00;3.08;;;16.00;86.00;;;;;;4977464;28;20373;-81
2023/10/18 10:03:56;;;;;;;5.18;3.50;;;16.00;86.00;;;;;;4977376;28;20404;-81
2023/10/18 10:06:27;;;;;;;5.88;3.28;;;16.00;86.00;;;;;;4977644;28;20029;-82
2023/10/18 10:09:12;;;;;;;5.78;3.33;;;16.00;86.00;;;;;;4977647;28;20435;-81
2023/10/18 10:11:43;;;;;;;5.30;3.20;;;16.00;86.00;;;;;;4977695;28;20026;-79
2023/10/18 10:14:15;;;;;;;5.55;3.53;;;16.10;86.10;;;;;;4977474;28;20497;-82
2023/10/18 10:16:46;;;;;;;5.68;3.58;;;16.10;86.10;;;;;;4977538;28;20058;-82
2023/10/18 10:19:13;;;;;;;5.50;3.13;;;16.10;86.10;;;;;;4977443;28;20035;-82
2023/10/18 10:21:40;;;;;;;5.97;3.58;;;16.00;86.00;;;;;;4977510;28;20113;-82
2023/10/18 10:30:03;;;;;;;5.00;3.00;;;16.20;85.70;;;;;;4994963;28;20022;-81
2023/10/18 10:32:29;;;;;;;4.82;3.00;;;16.20;85.50;;;;;;4977001;28;20049;-81
2023/10/18 10:35:15;;;;;;;5.28;3.35;;;16.30;85.40;;;;;;4977057;28;20029;-81
2023/10/18 10:38:09;;;;;;;5.38;3.05;;;16.30;85.20;;;;;;4977180;28;20026;-81
2023/10/18 10:40:39;;;;;;;5.90;3.00;;;16.30;85.10;;;;;;4977275;28;20018;-82
2023/10/18 10:43:12;;;;;;;5.25;2.95;;;16.30;85.10;;;;;;4976612;28;20023;-81
2023/10/18 10:48:15;;;;;;;5.40;2.90;;;16.30;85.10;;;;;;4994476;28;20026;-81
2023/10/18 10:50:51;;;;;;;5.00;3.20;;;16.30;85.20;;;;;;4994469;28;20428;-82
2023/10/18 10:53:33;;;;;;;4.80;3.00;;;16.40;85.20;;;;;;4976244;28;20028;-82
2023/10/18 10:56:16;;;;;;;5.15;3.05;;;16.30;85.20;;;;;;4976755;28;20081;-81
2023/10/18 11:01:43;;;;;;;5.18;3.20;;;16.30;85.20;;;;;;4994534;28;20472;-81
2023/10/18 11:04:11;;;;;;;5.20;2.75;;;16.40;85.20;;;;;;4976375;28;20041;-82
2023/10/18 11:06:43;;;;;;;4.90;3.05;;;16.40;85.20;;;;;;4976504;28;20401;-82
2023/10/18 11:09:15;;;;;;;;;;;16.40;85.10;;;;;;4977080;28;20485;-81
2023/10/18 11:11:42;;;;;;;5.07;3.00;;;16.40;85.10;;;;;;4976313;28;20303;-82
2023/10/18 11:14:09;;;;;;;5.57;3.00;;;16.40;85.20;;;;;;4993150;28;20054;-82
2023/10/18 11:16:36;;;;;;;4.93;3.00;;;16.50;85.20;;;;;;4976337;28;20030;-82
2023/10/18 11:19:02;;;;;;;5.38;3.15;;;16.40;85.10;;;;;;4976257;28;20073;-81
2023/10/18 11:21:32;;;;;;;4.80;2.90;;;16.50;85.20;;;;;;4976106;28;20058;-82
2023/10/18 11:24:02;;;;;;;5.32;3.20;;;16.50;85.10;;;;;;4976083;28;20022;-82
2023/10/18 11:26:28;;;;;;;5.22;3.15;;;16.50;85.00;;;;;;4976044;28;20030;-81
2023/10/18 11:28:59;;;;;;;4.72;2.75;;;16.50;85.00;;;;;;4976111;28;20028;-81
2023/10/18 11:31:28;;;;;;;5.10;2.58;;;16.50;85.00;;;;;;4976156;28;20027;-82
2023/10/18 11:34:05;;;;;;;5.93;3.45;;;16.60;85.00;;;;;;4975759;28;20029;-81
2023/10/18 11:36:35;;;;;;;5.30;2.90;;;16.60;84.80;;;;;;4975964;28;20112;-81
2023/10/18 11:41:44;;;;;;;4.57;2.83;;;16.60;84.60;;;;;;4993718;28;20038;-81
2023/10/18 11:44:16;;;;;;;4.45;2.70;;;16.60;84.60;;;;;;4975466;28;20488;-81
2023/10/18 11:46:50;;;;;;;4.35;2.60;;;16.60;84.60;;;;;;4975845;28;20034;-82
2023/10/18 11:49:19;;;;;;;4.63;2.92;;;16.60;84.60;;;;;;4975917;28;20117;-81
2023/10/18 11:51:48;;;;;;;4.85;2.60;;;16.60;84.70;;;;;;4975402;28;20030;-82
2023/10/18 11:54:30;;;;;;;4.88;2.78;;;16.60;84.70;;;;;;4975497;28;20030;-81
2023/10/18 11:56:56;;;;;;;4.35;2.70;;;16.60;85.20;;;;;;4975838;28;20030;-81
2023/10/18 11:59:28;;;;;;;4.68;2.70;;;16.60;84.80;;;;;;4993069;28;20049;-81
2023/10/18 12:02:06;;;;;;;4.97;2.80;;;16.60;84.90;;;;;;4975792;28;20109;-81
2023/10/18 12:04:37;;;;;;;5.38;2.88;;;16.60;84.90;;;;;;4975459;28;20026;-82
2023/10/18 12:07:04;;;;;;;4.93;2.60;;;16.50;84.90;;;;;;4975788;28;20037;-81
2023/10/18 12:09:42;;;;;;;4.80;2.65;;;16.60;85.00;;;;;;4975702;28;20026;-81
2023/10/18 12:12:19;;;;;;;4.22;2.65;;;16.50;85.00;;;;;;4975527;28;20575;-82
2023/10/18 12:14:45;;;;;;;4.68;2.63;;;16.50;85.00;;;;;;4975232;28;20122;-81
2023/10/18 12:17:15;;;;;;;4.10;2.63;;;16.50;85.00;;;;;;4975609;28;20018;-81
2023/10/18 12:19:41;;;;;;;4.43;2.53;;;16.50;85.00;;;;;;4992868;28;20175;-82
2023/10/18 12:22:10;;;;;;;4.28;2.50;;;16.50;85.00;;;;;;4975390;28;20034;-81
2023/10/18 12:24:38;;;;;;;4.60;2.60;;;16.50;85.10;;;;;;4976504;28;20428;-81
2023/10/18 12:27:38;;;;;;;4.78;2.80;;;16.40;85.10;;;;;;4979350;28;20050;-81
2023/10/18 12:29:59;;;;;;;4.85;2.60;;;16.50;85.20;;;;;;4994659;28;20033;-81
2023/10/18 12:32:27;;;;;;;3.85;2.38;;;16.50;85.30;;;;;;4979453;28;20030;-82
2023/10/18 12:35:06;;;;;;;3.60;2.30;;;16.50;85.40;;;;;;4979126;28;20423;-81
2023/10/18 12:37:40;;;;;;;4.50;2.70;;;16.40;85.40;;;;;;4979328;28;20022;-81
2023/10/18 12:40:24;;;;;;;4.07;2.47;;;16.40;85.50;;;;;;4996821;28;20096;-81
2023/10/18 12:42:50;;;;;;;4.60;2.55;;;16.40;85.50;;;;;;4979277;28;20031;-81
2023/10/18 12:45:18;;;;;;;3.53;2.20;;;16.40;85.40;;;;;;4979027;28;20504;-81
2023/10/18 12:47:46;;;;;;;4.45;2.55;;;16.50;85.50;;;;;;4978961;28;20035;-81
2023/10/18 12:50:17;;;;;;;4.22;2.60;;;16.40;85.30;;;;;;4996680;28;20105;-81
2023/10/18 12:52:44;;;;;;;3.63;2.10;;;16.40;85.20;;;;;;4978558;28;20113;-81
2023/10/18 12:55:32;;;;;;;4.15;2.53;;;16.50;85.20;;;;;;4978782;28;20100;-81
2023/10/18 12:57:55;;;;;;;3.92;2.35;;;16.50;85.10;;;;;;4996030;28;20089;-81
2023/10/18 13:00:25;;;;;;;3.95;2.50;;;16.50;85.20;;;;;;4978925;28;20489;-81
2023/10/18 13:05:21;;;;;;;4.05;2.50;;;16.50;85.30;;;;;;4996395;28;20464;-81
2023/10/18 13:07:52;;;;;;;3.70;2.17;;;16.50;85.40;;;;;;4978631;28;20026;-81
2023/10/18 13:10:35;;;;;;;4.57;2.40;;;16.40;85.40;;;;;;4978939;28;20022;-81
2023/10/18 13:13:04;;;;;;;3.80;2.20;;;16.40;85.60;;;;;;4978570;28;20481;-81
2023/10/18 13:15:33;;;;;;;4.38;2.30;;;16.40;85.70;;;;;;4978650;28;20030;-82
2023/10/18 13:17:58;;;;;;;4.00;2.25;;;16.40;85.80;;;;;;4978598;28;20118;-82
2023/10/18 13:20:24;;;;;;;4.03;2.50;;;16.30;85.80;;;;;;4978697;28;20480;-81
2023/10/18 13:22:56;;;;;;;4.18;2.33;;;16.30;85.90;;;;;;4995666;28;20037;-81
2023/10/18 13:25:25;;;;;;;3.70;2.30;;;16.30;86.00;;;;;;4978302;28;20030;-81
2023/10/18 13:27:54;;;;;;;4.05;2.40;;;16.30;86.00;;;;;;4978425;28;20034;-81
2023/10/18 13:30:32;;;;;;;3.33;2.05;;;16.30;86.00;;;;;;4978539;28;20022;-81
2023/10/18 13:33:01;;;;;;;4.30;2.40;;;16.30;86.20;;;;;;4978152;28;20023;-82
2023/10/18 13:35:34;;;;;;;3.55;2.08;;;16.30;86.10;;;;;;4978171;28;20030;-81
2023/10/18 13:37:59;;;;;;;4.60;2.45;;;16.30;86.20;;;;;;4977873;28;20026;-82
2023/10/18 13:40:27;;;;;;;4.07;2.28;;;16.30;86.20;;;;;;4995562;28;20098;-80
2023/10/18 13:42:54;;;;;;;4.65;2.40;;;16.30;86.30;;;;;;4978025;28;20493;-81
2023/10/18 13:45:28;;;;;;;3.67;2.17;;;16.30;86.30;;;;;;4978650;28;20038;-83
2023/10/18 13:47:56;;;;;;;3.83;2.20;;;16.30;86.30;;;;;;4978085;28;20086;-81
2023/10/18 13:50:23;;;;;;;3.25;2.08;;;16.30;86.30;;;;;;4977881;28;20026;-81
2023/10/18 13:52:50;;;;;;;3.72;2.15;;;16.30;86.20;;;;;;4977442;28;20019;-81
2023/10/18 13:55:18;;;;;;;3.55;2.20;;;16.30;86.00;;;;;;4977783;28;20399;-81
2023/10/18 13:57:45;;;;;;;3.60;2.08;;;16.30;85.80;;;;;;4977864;28;20057;-81
2023/10/18 14:00:14;;;;;;;3.72;2.20;;;16.30;85.70;;;;;;4977824;28;20022;-81
2023/10/18 14:02:40;;;;;;;3.80;2.22;;;16.30;85.40;;;;;;4977538;28;20471;-81
2023/10/18 14:05:07;;;;;;;4.10;2.20;;;16.40;85.40;;;;;;4977603;28;20109;-81
2023/10/18 14:07:35;;;;;;;3.20;1.95;;;16.40;85.30;;;;;;4977600;28;20023;-81